sensor_id;sensor_type;location;lat;lon;timestamp;pressure;altitude;pressure_sealevel;temperature;humidity
75788;BME280;64406;50.024;14.492;2023-05-27T00:00:09;98924.63;;;10.39;52.80
75788;BME280;64406;50.024;14.492;2023-05-27T00:02:55;98928.59;;;10.26;53.48
75788;BME280;64406;50.024;14.492;2023-05-27T00:05:20;98916.63;;;10.12;53.27
75788;BME280;64406;50.024;14.492;2023-05-27T00:07:46;98912.00;;;10.07;53.75
75788;BME280;64406;50.024;14.492;2023-05-27T00:10:12;98909.03;;;10.04;53.22
75788;BME280;64406;50.024;14.492;2023-05-27T00:12:37;98922.22;;;10.05;53.43
75788;BME280;64406;50.024;14.492;2023-05-27T00:15:03;98907.00;;;9.89;53.60
75788;BME280;64406;50.024;14.492;2023-05-27T00:17:29;98912.72;;;9.93;54.23
75788;BME280;64406;50.024;14.492;2023-05-27T00:19:55;98911.31;;;9.85;54.51
75788;BME280;64406;50.024;14.492;2023-05-27T00:22:20;98901.56;;;9.79;54.51
75788;BME280;64406;50.024;14.492;2023-05-27T00:24:46;98925.50;;;9.80;55.91
75788;BME280;64406;50.024;14.492;2023-05-27T00:27:12;98911.88;;;9.60;56.18
75788;BME280;64406;50.024;14.492;2023-05-27T00:29:37;98921.91;;;9.65;56.16
75788;BME280;64406;50.024;14.492;2023-05-27T00:32:03;98920.50;;;9.62;56.03
75788;BME280;64406;50.024;14.492;2023-05-27T00:34:33;98916.06;;;9.46;56.35
75788;BME280;64406;50.024;14.492;2023-05-27T00:36:59;98905.56;;;9.44;57.31
75788;BME280;64406;50.024;14.492;2023-05-27T00:39:25;98918.38;;;9.37;56.57
75788;BME280;64406;50.024;14.492;2023-05-27T00:41:51;98917.03;;;9.35;57.27
75788;BME280;64406;50.024;14.492;2023-05-27T00:44:17;98916.09;;;9.24;57.65
75788;BME280;64406;50.024;14.492;2023-05-27T00:46:44;98922.72;;;9.16;58.69
75788;BME280;64406;50.024;14.492;2023-05-27T00:49:11;98918.88;;;9.07;59.14
75788;BME280;64406;50.024;14.492;2023-05-27T00:51:37;98911.94;;;8.89;60.77
75788;BME280;64406;50.024;14.492;2023-05-27T00:54:04;98917.22;;;8.79;60.85
75788;BME280;64406;50.024;14.492;2023-05-27T00:56:29;98911.88;;;8.62;62.22
75788;BME280;64406;50.024;14.492;2023-05-27T00:58:56;98914.56;;;8.62;61.54
75788;BME280;64406;50.024;14.492;2023-05-27T01:01:21;98908.41;;;8.45;62.57
75788;BME280;64406;50.024;14.492;2023-05-27T01:03:51;98917.16;;;8.35;63.83
75788;BME280;64406;50.024;14.492;2023-05-27T01:08:55;98919.59;;;8.20;66.22
75788;BME280;64406;50.024;14.492;2023-05-27T01:11:28;98905.84;;;8.16;66.25
75788;BME280;64406;50.024;14.492;2023-05-27T01:14:00;98914.31;;;8.08;66.53
75788;BME280;64406;50.024;14.492;2023-05-27T01:16:29;98902.94;;;8.01;67.21
75788;BME280;64406;50.024;14.492;2023-05-27T01:18:58;98906.50;;;7.90;67.90
75788;BME280;64406;50.024;14.492;2023-05-27T01:21:29;98907.31;;;7.90;66.89
75788;BME280;64406;50.024;14.492;2023-05-27T01:24:02;98908.22;;;7.96;66.91
75788;BME280;64406;50.024;14.492;2023-05-27T01:26:28;98895.47;;;7.86;66.97
75788;BME280;64406;50.024;14.492;2023-05-27T01:28:54;98914.47;;;7.85;67.35
75788;BME280;64406;50.024;14.492;2023-05-27T01:32:02;98909.25;;;7.78;67.58
75788;BME280;64406;50.024;14.492;2023-05-27T01:35:02;98917.72;;;7.70;68.21
75788;BME280;64406;50.024;14.492;2023-05-27T01:37:30;98906.50;;;7.56;68.39
75788;BME280;64406;50.024;14.492;2023-05-27T01:39:57;98919.25;;;7.49;68.49
75788;BME280;64406;50.024;14.492;2023-05-27T01:42:23;98916.81;;;7.48;68.78
75788;BME280;64406;50.024;14.492;2023-05-27T01:44:50;98904.38;;;7.42;69.43
75788;BME280;64406;50.024;14.492;2023-05-27T01:47:16;98903.72;;;7.34;69.11
75788;BME280;64406;50.024;14.492;2023-05-27T01:49:42;98904.53;;;7.35;68.97
75788;BME280;64406;50.024;14.492;2023-05-27T01:52:07;98901.19;;;7.28;69.22
75788;BME280;64406;50.024;14.492;2023-05-27T01:54:34;98905.94;;;7.26;69.04
75788;BME280;64406;50.024;14.492;2023-05-27T01:57:00;98919.03;;;7.22;70.00
75788;BME280;64406;50.024;14.492;2023-05-27T01:59:26;98921.34;;;7.19;70.66
75788;BME280;64406;50.024;14.492;2023-05-27T02:01:52;98916.63;;;7.09;71.33
75788;BME280;64406;50.024;14.492;2023-05-27T02:04:17;98914.56;;;6.99;72.39
75788;BME280;64406;50.024;14.492;2023-05-27T02:06:43;98920.75;;;7.00;72.46
75788;BME280;64406;50.024;14.492;2023-05-27T02:09:12;98922.03;;;6.97;73.37
75788;BME280;64406;50.024;14.492;2023-05-27T02:11:38;98924.69;;;6.97;74.12
75788;BME280;64406;50.024;14.492;2023-05-27T02:14:26;98926.81;;;6.95;74.52
75788;BME280;64406;50.024;14.492;2023-05-27T02:16:52;98930.19;;;6.91;74.29
75788;BME280;64406;50.024;14.492;2023-05-27T02:19:18;98900.34;;;6.70;74.04
75788;BME280;64406;50.024;14.492;2023-05-27T02:21:46;98905.13;;;6.68;74.52
75788;BME280;64406;50.024;14.492;2023-05-27T02:24:12;98920.31;;;6.79;74.50
75788;BME280;64406;50.024;14.492;2023-05-27T02:26:37;98921.25;;;6.73;73.78
75788;BME280;64406;50.024;14.492;2023-05-27T02:29:03;98915.81;;;6.68;73.74
75788;BME280;64406;50.024;14.492;2023-05-27T02:31:29;98914.50;;;6.82;74.86
75788;BME280;64406;50.024;14.492;2023-05-27T02:33:55;98902.31;;;6.63;74.54
75788;BME280;64406;50.024;14.492;2023-05-27T02:36:21;98918.50;;;6.68;74.70
75788;BME280;64406;50.024;14.492;2023-05-27T02:38:49;98905.13;;;6.57;73.99
75788;BME280;64406;50.024;14.492;2023-05-27T02:41:15;98918.28;;;6.58;73.56
75788;BME280;64406;50.024;14.492;2023-05-27T02:43:41;98912.34;;;6.56;72.12
75788;BME280;64406;50.024;14.492;2023-05-27T02:46:06;98918.72;;;6.67;72.21
75788;BME280;64406;50.024;14.492;2023-05-27T02:48:33;98920.09;;;6.81;69.89
75788;BME280;64406;50.024;14.492;2023-05-27T02:50:59;98916.16;;;6.72;69.79
75788;BME280;64406;50.024;14.492;2023-05-27T02:53:25;98925.59;;;6.74;69.30
75788;BME280;64406;50.024;14.492;2023-05-27T02:55:50;98926.94;;;6.89;68.84
75788;BME280;64406;50.024;14.492;2023-05-27T02:58:16;98921.06;;;6.75;69.21
75788;BME280;64406;50.024;14.492;2023-05-27T03:00:42;98926.16;;;6.76;69.22
75788;BME280;64406;50.024;14.492;2023-05-27T03:03:08;98914.16;;;6.79;69.25
75788;BME280;64406;50.024;14.492;2023-05-27T03:05:34;98918.38;;;6.75;69.19
75788;BME280;64406;50.024;14.492;2023-05-27T03:08:01;98913.59;;;6.65;70.24
75788;BME280;64406;50.024;14.492;2023-05-27T03:10:28;98930.84;;;6.69;69.17
75788;BME280;64406;50.024;14.492;2023-05-27T03:12:54;98922.56;;;6.71;69.58
75788;BME280;64406;50.024;14.492;2023-05-27T03:15:20;98909.75;;;6.73;68.96
75788;BME280;64406;50.024;14.492;2023-05-27T03:17:47;98915.09;;;6.73;69.44
75788;BME280;64406;50.024;14.492;2023-05-27T03:20:13;98916.16;;;6.72;69.29
75788;BME280;64406;50.024;14.492;2023-05-27T03:22:38;98918.03;;;6.71;69.63
75788;BME280;64406;50.024;14.492;2023-05-27T03:25:05;98917.63;;;6.79;69.51
75788;BME280;64406;50.024;14.492;2023-05-27T03:27:31;98931.94;;;6.85;69.35
75788;BME280;64406;50.024;14.492;2023-05-27T03:29:57;98927.78;;;6.77;69.73
75788;BME280;64406;50.024;14.492;2023-05-27T03:32:23;98916.25;;;6.77;69.63
75788;BME280;64406;50.024;14.492;2023-05-27T03:34:49;98927.91;;;6.82;70.44
75788;BME280;64406;50.024;14.492;2023-05-27T03:37:15;98927.31;;;6.80;69.93
75788;BME280;64406;50.024;14.492;2023-05-27T03:39:40;98935.38;;;6.80;70.23
75788;BME280;64406;50.024;14.492;2023-05-27T03:42:06;98937.16;;;6.92;69.71
75788;BME280;64406;50.024;14.492;2023-05-27T03:44:32;98925.78;;;6.85;69.88
75788;BME280;64406;50.024;14.492;2023-05-27T03:47:01;98943.34;;;6.92;69.83
75788;BME280;64406;50.024;14.492;2023-05-27T03:49:27;98925.69;;;6.79;70.19
75788;BME280;64406;50.024;14.492;2023-05-27T03:51:53;98928.22;;;6.86;70.28
75788;BME280;64406;50.024;14.492;2023-05-27T03:54:18;98913.28;;;7.02;69.20
75788;BME280;64406;50.024;14.492;2023-05-27T03:56:44;98923.81;;;7.20;68.38
75788;BME280;64406;50.024;14.492;2023-05-27T03:59:09;98927.88;;;7.23;68.71
75788;BME280;64406;50.024;14.492;2023-05-27T04:01:37;98933.47;;;7.21;69.51
75788;BME280;64406;50.024;14.492;2023-05-27T04:04:03;98923.97;;;7.14;69.54
75788;BME280;64406;50.024;14.492;2023-05-27T04:06:29;98934.41;;;7.27;69.70
75788;BME280;64406;50.024;14.492;2023-05-27T04:08:57;98936.84;;;7.45;69.51
75788;BME280;64406;50.024;14.492;2023-05-27T04:11:26;98934.00;;;7.35;70.89
75788;BME280;64406;50.024;14.492;2023-05-27T04:13:52;98943.56;;;7.31;71.90
75788;BME280;64406;50.024;14.492;2023-05-27T04:16:18;98945.78;;;7.34;70.97
75788;BME280;64406;50.024;14.492;2023-05-27T04:18:44;98937.53;;;7.24;70.37
75788;BME280;64406;50.024;14.492;2023-05-27T04:21:15;98963.03;;;7.55;69.23
75788;BME280;64406;50.024;14.492;2023-05-27T04:23:41;98954.00;;;7.44;69.25
75788;BME280;64406;50.024;14.492;2023-05-27T04:26:06;98954.44;;;7.53;69.42
75788;BME280;64406;50.024;14.492;2023-05-27T04:28:34;98960.78;;;7.63;69.54
75788;BME280;64406;50.024;14.492;2023-05-27T04:31:01;98953.63;;;7.69;69.04
75788;BME280;64406;50.024;14.492;2023-05-27T04:33:26;98968.59;;;7.82;69.72
75788;BME280;64406;50.024;14.492;2023-05-27T04:35:53;98960.31;;;7.83;69.02
75788;BME280;64406;50.024;14.492;2023-05-27T04:38:20;98955.94;;;8.11;67.65
75788;BME280;64406;50.024;14.492;2023-05-27T04:40:49;98968.88;;;8.14;67.48
75788;BME280;64406;50.024;14.492;2023-05-27T04:43:19;98954.81;;;8.07;68.06
75788;BME280;64406;50.024;14.492;2023-05-27T04:45:46;98969.19;;;8.17;68.05
75788;BME280;64406;50.024;14.492;2023-05-27T04:48:11;98959.91;;;8.25;67.42
75788;BME280;64406;50.024;14.492;2023-05-27T04:50:37;98960.66;;;8.37;66.84
75788;BME280;64406;50.024;14.492;2023-05-27T04:53:04;98959.69;;;8.43;67.32
75788;BME280;64406;50.024;14.492;2023-05-27T04:55:32;98952.22;;;8.46;66.95
75788;BME280;64406;50.024;14.492;2023-05-27T04:57:59;98935.56;;;8.32;67.77
75788;BME280;64406;50.024;14.492;2023-05-27T05:00:28;98963.59;;;8.53;66.99
75788;BME280;64406;50.024;14.492;2023-05-27T05:03:12;98962.34;;;8.60;66.43
75788;BME280;64406;50.024;14.492;2023-05-27T05:05:52;98954.28;;;8.60;66.72
75788;BME280;64406;50.024;14.492;2023-05-27T05:08:19;98957.69;;;8.73;66.17
75788;BME280;64406;50.024;14.492;2023-05-27T05:10:47;98963.69;;;8.80;66.15
75788;BME280;64406;50.024;14.492;2023-05-27T05:13:14;98954.31;;;8.82;65.98
75788;BME280;64406;50.024;14.492;2023-05-27T05:15:40;98961.13;;;8.90;66.20
75788;BME280;64406;50.024;14.492;2023-05-27T05:18:09;98953.88;;;8.90;65.88
75788;BME280;64406;50.024;14.492;2023-05-27T05:20:35;98968.75;;;8.98;65.87
75788;BME280;64406;50.024;14.492;2023-05-27T05:23:01;98960.00;;;9.08;65.40
75788;BME280;64406;50.024;14.492;2023-05-27T05:25:27;98968.19;;;9.18;64.89
75788;BME280;64406;50.024;14.492;2023-05-27T05:27:53;98959.94;;;9.24;64.96
75788;BME280;64406;50.024;14.492;2023-05-27T05:30:19;98958.00;;;9.20;64.72
75788;BME280;64406;50.024;14.492;2023-05-27T05:32:45;98964.47;;;9.24;64.87
75788;BME280;64406;50.024;14.492;2023-05-27T05:35:11;98962.44;;;9.31;64.35
75788;BME280;64406;50.024;14.492;2023-05-27T05:37:37;98967.28;;;9.34;64.48
75788;BME280;64406;50.024;14.492;2023-05-27T05:40:03;98953.03;;;9.34;64.81
75788;BME280;64406;50.024;14.492;2023-05-27T05:42:28;98953.38;;;9.42;64.50
75788;BME280;64406;50.024;14.492;2023-05-27T05:44:54;98957.91;;;9.37;64.25
75788;BME280;64406;50.024;14.492;2023-05-27T05:47:20;98961.84;;;9.51;64.30
75788;BME280;64406;50.024;14.492;2023-05-27T05:49:45;98958.38;;;9.56;64.12
75788;BME280;64406;50.024;14.492;2023-05-27T05:52:11;98933.47;;;9.38;64.39
75788;BME280;64406;50.024;14.492;2023-05-27T05:54:37;98967.63;;;9.65;64.66
75788;BME280;64406;50.024;14.492;2023-05-27T05:57:02;98967.91;;;9.68;64.25
75788;BME280;64406;50.024;14.492;2023-05-27T05:59:28;98965.88;;;9.80;63.96
75788;BME280;64406;50.024;14.492;2023-05-27T06:01:54;98951.34;;;9.81;63.42
75788;BME280;64406;50.024;14.492;2023-05-27T06:04:20;98954.34;;;9.85;63.53
75788;BME280;64406;50.024;14.492;2023-05-27T06:06:45;98974.34;;;9.94;62.85
75788;BME280;64406;50.024;14.492;2023-05-27T06:09:11;98971.38;;;9.91;62.84
75788;BME280;64406;50.024;14.492;2023-05-27T06:11:37;98972.56;;;10.05;62.79
75788;BME280;64406;50.024;14.492;2023-05-27T06:14:03;98983.28;;;10.00;61.97
75788;BME280;64406;50.024;14.492;2023-05-27T06:16:29;98961.44;;;9.96;62.12
75788;BME280;64406;50.024;14.492;2023-05-27T06:18:55;98973.38;;;10.05;62.98
75788;BME280;64406;50.024;14.492;2023-05-27T06:21:21;98970.50;;;10.17;63.02
75788;BME280;64406;50.024;14.492;2023-05-27T06:23:47;98971.94;;;10.30;62.72
75788;BME280;64406;50.024;14.492;2023-05-27T06:26:14;98963.66;;;10.37;61.70
75788;BME280;64406;50.024;14.492;2023-05-27T06:28:40;98972.00;;;10.35;61.47
75788;BME280;64406;50.024;14.492;2023-05-27T06:31:06;98969.03;;;10.37;61.58
75788;BME280;64406;50.024;14.492;2023-05-27T06:33:32;98976.44;;;10.51;61.45
75788;BME280;64406;50.024;14.492;2023-05-27T06:35:57;98983.94;;;10.44;60.57
75788;BME280;64406;50.024;14.492;2023-05-27T06:38:23;98981.06;;;10.61;60.55
75788;BME280;64406;50.024;14.492;2023-05-27T06:40:49;98969.28;;;10.72;60.57
75788;BME280;64406;50.024;14.492;2023-05-27T06:43:15;98967.41;;;10.73;60.57
75788;BME280;64406;50.024;14.492;2023-05-27T06:45:40;98971.78;;;10.84;60.95
75788;BME280;64406;50.024;14.492;2023-05-27T06:48:06;98976.13;;;10.90;59.17
75788;BME280;64406;50.024;14.492;2023-05-27T06:50:34;98969.59;;;10.81;59.80
75788;BME280;64406;50.024;14.492;2023-05-27T06:53:00;98967.00;;;10.96;60.35
75788;BME280;64406;50.024;14.492;2023-05-27T06:55:25;98967.03;;;11.11;59.58
75788;BME280;64406;50.024;14.492;2023-05-27T06:57:51;98968.16;;;11.21;59.51
75788;BME280;64406;50.024;14.492;2023-05-27T07:00:17;98976.03;;;11.37;58.06
75788;BME280;64406;50.024;14.492;2023-05-27T07:02:43;98968.47;;;11.39;58.20
75788;BME280;64406;50.024;14.492;2023-05-27T07:05:08;98975.00;;;11.54;58.24
75788;BME280;64406;50.024;14.492;2023-05-27T07:07:34;98974.47;;;11.57;57.75
75788;BME280;64406;50.024;14.492;2023-05-27T07:10:00;98972.56;;;11.52;58.02
75788;BME280;64406;50.024;14.492;2023-05-27T07:12:26;98979.34;;;11.65;57.43
75788;BME280;64406;50.024;14.492;2023-05-27T07:14:51;98976.66;;;11.75;56.13
75788;BME280;64406;50.024;14.492;2023-05-27T07:17:17;98973.69;;;11.77;55.74
75788;BME280;64406;50.024;14.492;2023-05-27T07:19:42;98968.81;;;11.74;56.62
75788;BME280;64406;50.024;14.492;2023-05-27T07:22:08;98977.81;;;11.89;57.30
75788;BME280;64406;50.024;14.492;2023-05-27T07:24:34;98962.66;;;11.88;56.44
75788;BME280;64406;50.024;14.492;2023-05-27T07:26:59;98964.84;;;11.96;56.73
75788;BME280;64406;50.024;14.492;2023-05-27T07:29:26;98968.63;;;12.16;56.89
75788;BME280;64406;50.024;14.492;2023-05-27T07:31:52;98968.88;;;12.30;55.57
75788;BME280;64406;50.024;14.492;2023-05-27T07:34:18;98963.19;;;12.21;55.29
75788;BME280;64406;50.024;14.492;2023-05-27T07:36:44;98975.09;;;12.00;55.66
75788;BME280;64406;50.024;14.492;2023-05-27T07:39:09;98972.66;;;12.08;55.97
75788;BME280;64406;50.024;14.492;2023-05-27T07:41:35;98968.06;;;12.19;57.04
75788;BME280;64406;50.024;14.492;2023-05-27T07:44:00;98956.69;;;12.47;56.26
75788;BME280;64406;50.024;14.492;2023-05-27T07:46:26;98948.34;;;12.39;53.96
75788;BME280;64406;50.024;14.492;2023-05-27T07:48:52;98964.22;;;12.71;54.55
75788;BME280;64406;50.024;14.492;2023-05-27T07:51:18;98960.94;;;12.79;53.87
75788;BME280;64406;50.024;14.492;2023-05-27T07:53:43;98957.72;;;12.77;54.39
75788;BME280;64406;50.024;14.492;2023-05-27T07:56:09;98955.84;;;12.67;55.03
75788;BME280;64406;50.024;14.492;2023-05-27T07:58:35;98949.03;;;12.90;55.29
75788;BME280;64406;50.024;14.492;2023-05-27T08:01:01;98955.03;;;12.77;55.46
75788;BME280;64406;50.024;14.492;2023-05-27T08:03:26;98954.13;;;13.02;54.86
75788;BME280;64406;50.024;14.492;2023-05-27T08:05:52;98957.09;;;13.00;53.15
75788;BME280;64406;50.024;14.492;2023-05-27T08:08:18;98953.53;;;13.15;53.86
75788;BME280;64406;50.024;14.492;2023-05-27T08:10:44;98958.31;;;13.33;53.93
75788;BME280;64406;50.024;14.492;2023-05-27T08:13:11;98953.44;;;13.41;54.50
75788;BME280;64406;50.024;14.492;2023-05-27T08:15:37;98951.66;;;13.21;53.78
75788;BME280;64406;50.024;14.492;2023-05-27T08:18:02;98939.66;;;13.32;53.96
75788;BME280;64406;50.024;14.492;2023-05-27T08:20:28;98952.25;;;13.57;55.00
75788;BME280;64406;50.024;14.492;2023-05-27T08:22:54;98937.03;;;13.66;54.01
75788;BME280;64406;50.024;14.492;2023-05-27T08:25:19;98934.00;;;13.73;53.75
75788;BME280;64406;50.024;14.492;2023-05-27T08:27:56;98931.22;;;13.83;53.26
75788;BME280;64406;50.024;14.492;2023-05-27T08:30:30;98938.69;;;14.01;51.91
75788;BME280;64406;50.024;14.492;2023-05-27T08:32:56;98926.41;;;14.09;51.27
75788;BME280;64406;50.024;14.492;2023-05-27T08:35:22;98913.34;;;14.16;51.38
75788;BME280;64406;50.024;14.492;2023-05-27T08:37:48;98923.53;;;14.29;51.24
75788;BME280;64406;50.024;14.492;2023-05-27T08:40:15;98914.97;;;14.17;50.47
75788;BME280;64406;50.024;14.492;2023-05-27T08:42:42;98899.81;;;14.16;50.64
75788;BME280;64406;50.024;14.492;2023-05-27T08:45:09;98911.81;;;14.05;49.58
75788;BME280;64406;50.024;14.492;2023-05-27T08:47:35;98921.16;;;14.23;50.62
75788;BME280;64406;50.024;14.492;2023-05-27T08:50:02;98916.03;;;14.21;49.79
75788;BME280;64406;50.024;14.492;2023-05-27T08:52:28;98897.38;;;14.14;50.59
75788;BME280;64406;50.024;14.492;2023-05-27T08:54:56;98907.50;;;14.33;49.95
75788;BME280;64406;50.024;14.492;2023-05-27T08:57:27;98897.28;;;14.54;48.50
75788;BME280;64406;50.024;14.492;2023-05-27T08:59:53;98902.63;;;14.59;48.59
75788;BME280;64406;50.024;14.492;2023-05-27T09:02:20;98904.66;;;14.72;49.08
75788;BME280;64406;50.024;14.492;2023-05-27T09:04:47;98899.53;;;14.71;47.59
75788;BME280;64406;50.024;14.492;2023-05-27T09:07:13;98899.56;;;14.89;47.76
75788;BME280;64406;50.024;14.492;2023-05-27T09:09:39;98905.75;;;14.95;46.67
75788;BME280;64406;50.024;14.492;2023-05-27T09:12:05;98902.97;;;15.00;47.12
75788;BME280;64406;50.024;14.492;2023-05-27T09:14:34;98898.47;;;14.90;46.11
75788;BME280;64406;50.024;14.492;2023-05-27T09:17:07;98888.72;;;14.89;46.78
75788;BME280;64406;50.024;14.492;2023-05-27T09:19:33;98888.25;;;15.06;47.65
75788;BME280;64406;50.024;14.492;2023-05-27T09:21:59;98884.00;;;15.19;46.55
75788;BME280;64406;50.024;14.492;2023-05-27T09:24:26;98898.84;;;15.45;45.17
75788;BME280;64406;50.024;14.492;2023-05-27T09:26:55;98896.63;;;15.47;44.09
75788;BME280;64406;50.024;14.492;2023-05-27T09:29:25;98893.41;;;15.45;44.17
75788;BME280;64406;50.024;14.492;2023-05-27T09:31:56;98893.97;;;15.42;44.64
75788;BME280;64406;50.024;14.492;2023-05-27T09:34:22;98891.88;;;15.39;44.98
75788;BME280;64406;50.024;14.492;2023-05-27T09:36:50;98886.00;;;15.32;45.32
75788;BME280;64406;50.024;14.492;2023-05-27T09:39:21;98887.75;;;15.42;44.37
75788;BME280;64406;50.024;14.492;2023-05-27T09:41:52;98877.25;;;15.54;44.00
75788;BME280;64406;50.024;14.492;2023-05-27T09:44:18;98864.97;;;15.57;44.66
75788;BME280;64406;50.024;14.492;2023-05-27T09:46:45;98879.19;;;15.72;43.88
75788;BME280;64406;50.024;14.492;2023-05-27T09:49:14;98887.31;;;15.72;42.18
75788;BME280;64406;50.024;14.492;2023-05-27T09:51:43;98880.56;;;15.70;42.61
75788;BME280;64406;50.024;14.492;2023-05-27T09:54:11;98878.69;;;15.84;43.03
75788;BME280;64406;50.024;14.492;2023-05-27T09:56:43;98881.88;;;15.91;41.86
75788;BME280;64406;50.024;14.492;2023-05-27T09:59:12;98871.03;;;15.35;43.78
75788;BME280;64406;50.024;14.492;2023-05-27T10:01:38;98869.78;;;15.65;44.19
75788;BME280;64406;50.024;14.492;2023-05-27T10:04:06;98863.13;;;15.90;43.01
75788;BME280;64406;50.024;14.492;2023-05-27T10:06:32;98849.44;;;15.95;41.51
75788;BME280;64406;50.024;14.492;2023-05-27T10:09:01;98863.84;;;15.63;41.31
75788;BME280;64406;50.024;14.492;2023-05-27T10:11:32;98855.38;;;15.97;41.10
75788;BME280;64406;50.024;14.492;2023-05-27T10:13:59;98852.97;;;15.95;41.56
75788;BME280;64406;50.024;14.492;2023-05-27T10:16:26;98853.94;;;16.18;41.03
75788;BME280;64406;50.024;14.492;2023-05-27T10:18:54;98850.41;;;16.18;40.13
75788;BME280;64406;50.024;14.492;2023-05-27T10:21:22;98843.25;;;16.22;40.71
75788;BME280;64406;50.024;14.492;2023-05-27T10:24:15;98844.88;;;16.23;41.57
75788;BME280;64406;50.024;14.492;2023-05-27T10:26:43;98846.78;;;16.22;41.38
75788;BME280;64406;50.024;14.492;2023-05-27T10:29:11;98846.97;;;16.12;43.36
75788;BME280;64406;50.024;14.492;2023-05-27T10:31:51;98844.16;;;16.17;41.88
75788;BME280;64406;50.024;14.492;2023-05-27T10:34:17;98840.63;;;16.30;42.21
75788;BME280;64406;50.024;14.492;2023-05-27T10:36:46;98843.88;;;16.19;40.57
75788;BME280;64406;50.024;14.492;2023-05-27T10:39:19;98839.34;;;16.28;39.87
75788;BME280;64406;50.024;14.492;2023-05-27T10:41:55;98831.31;;;16.64;41.23
75788;BME280;64406;50.024;14.492;2023-05-27T10:44:38;98832.81;;;16.84;40.29
75788;BME280;64406;50.024;14.492;2023-05-27T10:47:11;98828.19;;;16.84;40.12
75788;BME280;64406;50.024;14.492;2023-05-27T10:49:40;98839.16;;;16.93;38.80
75788;BME280;64406;50.024;14.492;2023-05-27T10:52:07;98830.50;;;16.77;39.00
75788;BME280;64406;50.024;14.492;2023-05-27T10:54:46;98823.50;;;16.99;41.15
75788;BME280;64406;50.024;14.492;2023-05-27T10:57:13;98821.50;;;17.04;39.68
75788;BME280;64406;50.024;14.492;2023-05-27T10:59:45;98827.75;;;17.27;41.74
75788;BME280;64406;50.024;14.492;2023-05-27T11:02:12;98812.44;;;17.54;39.13
75788;BME280;64406;50.024;14.492;2023-05-27T11:04:38;98809.00;;;17.26;39.06
75788;BME280;64406;50.024;14.492;2023-05-27T11:07:04;98815.28;;;16.76;38.16
75788;BME280;64406;50.024;14.492;2023-05-27T11:09:46;98820.47;;;17.00;39.14
75788;BME280;64406;50.024;14.492;2023-05-27T11:12:19;98807.66;;;17.37;36.15
75788;BME280;64406;50.024;14.492;2023-05-27T11:14:48;98784.38;;;17.53;38.58
75788;BME280;64406;50.024;14.492;2023-05-27T11:17:15;98797.53;;;17.74;37.60
75788;BME280;64406;50.024;14.492;2023-05-27T11:19:42;98794.78;;;17.74;36.84
75788;BME280;64406;50.024;14.492;2023-05-27T11:22:09;98808.63;;;17.77;37.06
75788;BME280;64406;50.024;14.492;2023-05-27T11:24:35;98803.00;;;17.82;36.17
75788;BME280;64406;50.024;14.492;2023-05-27T11:27:12;98793.00;;;18.00;33.99
75788;BME280;64406;50.024;14.492;2023-05-27T11:29:38;98801.63;;;18.25;32.46
75788;BME280;64406;50.024;14.492;2023-05-27T11:32:08;98797.81;;;18.34;32.65
75788;BME280;64406;50.024;14.492;2023-05-27T11:34:34;98796.97;;;18.25;33.81
75788;BME280;64406;50.024;14.492;2023-05-27T11:37:03;98769.53;;;18.21;33.22
75788;BME280;64406;50.024;14.492;2023-05-27T11:39:31;98787.34;;;18.19;34.10
75788;BME280;64406;50.024;14.492;2023-05-27T11:41:57;98780.97;;;18.32;35.23
75788;BME280;64406;50.024;14.492;2023-05-27T11:44:24;98779.09;;;18.59;35.88
75788;BME280;64406;50.024;14.492;2023-05-27T11:46:52;98772.50;;;18.42;36.21
75788;BME280;64406;50.024;14.492;2023-05-27T11:49:19;98765.00;;;18.57;36.88
75788;BME280;64406;50.024;14.492;2023-05-27T11:51:47;98778.22;;;18.81;36.04
75788;BME280;64406;50.024;14.492;2023-05-27T11:56:47;98762.47;;;18.86;36.40
75788;BME280;64406;50.024;14.492;2023-05-27T11:59:13;98755.75;;;19.01;36.68
75788;BME280;64406;50.024;14.492;2023-05-27T12:01:42;98751.91;;;19.02;36.40
75788;BME280;64406;50.024;14.492;2023-05-27T12:04:08;98761.06;;;19.23;37.33
75788;BME280;64406;50.024;14.492;2023-05-27T12:06:35;98752.03;;;19.32;36.54
75788;BME280;64406;50.024;14.492;2023-05-27T12:09:02;98763.91;;;19.44;37.05
75788;BME280;64406;50.024;14.492;2023-05-27T12:11:29;98752.66;;;19.46;35.63
75788;BME280;64406;50.024;14.492;2023-05-27T12:13:55;98757.19;;;19.33;36.31
75788;BME280;64406;50.024;14.492;2023-05-27T12:16:21;98764.59;;;19.41;35.58
75788;BME280;64406;50.024;14.492;2023-05-27T12:18:46;98759.13;;;19.41;36.05
75788;BME280;64406;50.024;14.492;2023-05-27T12:21:13;98754.41;;;19.76;32.62
75788;BME280;64406;50.024;14.492;2023-05-27T12:23:38;98754.06;;;20.25;33.71
75788;BME280;64406;50.024;14.492;2023-05-27T12:26:04;98758.25;;;20.81;34.89
75788;BME280;64406;50.024;14.492;2023-05-27T12:28:30;98746.38;;;21.52;31.64
75788;BME280;64406;50.024;14.492;2023-05-27T12:30:55;98743.78;;;22.50;29.11
75788;BME280;64406;50.024;14.492;2023-05-27T12:33:21;98744.50;;;23.68;26.86
75788;BME280;64406;50.024;14.492;2023-05-27T12:35:47;98746.50;;;25.16;24.55
75788;BME280;64406;50.024;14.492;2023-05-27T12:38:13;98738.16;;;27.30;22.26
75788;BME280;64406;50.024;14.492;2023-05-27T12:40:39;98734.19;;;29.22;20.30
75788;BME280;64406;50.024;14.492;2023-05-27T12:43:05;98721.69;;;30.53;19.31
75788;BME280;64406;50.024;14.492;2023-05-27T12:45:31;98716.94;;;31.59;17.40
75788;BME280;64406;50.024;14.492;2023-05-27T12:47:58;98727.91;;;32.40;18.17
75788;BME280;64406;50.024;14.492;2023-05-27T12:50:24;98716.41;;;33.71;16.40
75788;BME280;64406;50.024;14.492;2023-05-27T12:52:50;98714.88;;;35.07;13.14
75788;BME280;64406;50.024;14.492;2023-05-27T12:55:18;98702.16;;;35.02;13.06
75788;BME280;64406;50.024;14.492;2023-05-27T12:57:45;98711.13;;;36.51;12.26
75788;BME280;64406;50.024;14.492;2023-05-27T13:00:13;98707.31;;;37.03;11.44